createdAt,value
2022-11-01T00:00:24.056Z,100803.13
2022-11-01T00:05:28.378Z,100799.66
2022-11-01T00:10:31.307Z,100792.66
2022-11-01T00:15:34.516Z,100788.34
2022-11-01T00:20:38.836Z,100786.78
2022-11-01T00:25:41.841Z,100787.81
2022-11-01T00:30:44.870Z,100773.97
2022-11-01T00:35:49.116Z,100764.50
2022-11-01T00:40:52.142Z,100760.44
2022-11-01T00:45:55.175Z,100759.78
2022-11-01T00:50:59.702Z,100747.56
2022-11-01T00:56:02.842Z,100742.28
2022-11-01T01:01:06.068Z,100751.22
2022-11-01T01:06:10.506Z,100727.47
2022-11-01T01:11:13.847Z,100739.09
2022-11-01T01:16:16.967Z,100732.97
2022-11-01T01:21:21.602Z,100736.50
2022-11-01T01:26:24.509Z,100736.69
2022-11-01T01:31:28.213Z,100740.28
2022-11-01T01:36:32.555Z,100740.38
2022-11-01T01:41:53.271Z,100727.31
2022-11-01T01:46:56.351Z,100723.91
2022-11-01T01:52:00.755Z,100722.94
2022-11-01T01:57:04.287Z,100723.00
2022-11-01T02:02:08.308Z,100724.03
2022-11-01T02:07:13.181Z,100724.06
2022-11-01T02:12:16.295Z,100726.75
2022-11-01T02:17:26.348Z,100718.72
2022-11-01T02:22:52.790Z,100720.56
2022-11-01T02:28:11.576Z,100731.16
2022-11-01T02:33:27.786Z,100748.88
2022-11-01T02:38:36.778Z,100743.53
2022-11-01T02:43:47.968Z,100746.13
2022-11-01T02:48:53.296Z,100749.63
2022-11-01T02:53:56.179Z,100758.47
2022-11-01T02:58:59.311Z,100767.38
2022-11-01T03:04:04.437Z,100780.63
2022-11-01T03:09:11.685Z,100797.47
2022-11-01T03:14:24.744Z,100810.75
2022-11-01T03:19:43.404Z,100819.56
2022-11-01T03:24:53.010Z,100824.59
2022-11-01T03:30:02.305Z,100829.66
2022-11-01T03:35:11.583Z,100845.22
2022-11-01T03:40:17.820Z,100840.53
2022-11-01T03:45:25.454Z,100853.63
2022-11-01T03:50:31.102Z,100857.06
2022-11-01T03:55:34.022Z,100867.66
2022-11-01T04:00:39.115Z,100894.88
2022-11-01T04:05:44.120Z,100903.59
2022-11-01T04:10:47.028Z,100923.69
2022-11-01T04:16:07.669Z,100932.47
2022-11-01T04:21:15.148Z,100943.69
2022-11-01T04:26:20.227Z,100955.09
2022-11-01T04:31:23.628Z,100974.25
2022-11-01T04:36:28.646Z,100982.00
2022-11-01T04:41:31.612Z,101000.31
2022-11-01T04:46:34.866Z,101015.94
2022-11-01T04:51:41.572Z,100995.53
2022-11-01T04:56:44.861Z,101003.09
2022-11-01T05:01:47.910Z,101002.84
2022-11-01T05:06:52.632Z,100999.19
2022-11-01T05:11:55.498Z,100992.88
2022-11-01T05:16:59.167Z,101003.25
2022-11-01T05:22:03.498Z,100996.94
2022-11-01T05:27:06.570Z,101004.78
2022-11-01T05:32:09.985Z,101028.47
2022-11-01T05:37:15.858Z,101039.03
2022-11-01T05:42:18.785Z,101040.69
2022-11-01T05:47:21.837Z,101035.25
2022-11-01T05:52:26.162Z,101042.22
2022-11-01T05:57:33.292Z,101066.75
2022-11-01T06:02:36.742Z,101072.66
2022-11-01T06:07:41.120Z,101077.78
2022-11-01T06:12:44.045Z,101090.75
2022-11-01T06:17:47.372Z,101094.06
2022-11-01T06:22:51.877Z,101085.84
2022-11-01T06:27:55.445Z,101085.72
2022-11-01T06:33:01.574Z,101090.78
2022-11-01T06:38:08.726Z,101113.53
2022-11-01T06:43:11.636Z,101116.94
2022-11-01T06:48:14.688Z,101124.66
2022-11-01T06:53:19.533Z,101128.09
2022-11-01T06:58:22.505Z,101152.88
2022-11-01T07:03:25.519Z,101156.34
2022-11-01T07:08:30.012Z,101157.19
2022-11-01T07:13:34.002Z,101178.94
2022-11-01T07:18:37.013Z,101189.47
2022-11-01T07:23:41.639Z,101211.59
2022-11-01T07:28:44.716Z,101224.16
2022-11-01T07:33:47.737Z,101223.25
2022-11-01T07:38:52.310Z,101231.19
2022-11-01T07:43:55.278Z,101233.84
2022-11-01T07:49:00.446Z,101255.94
2022-11-01T07:54:05.007Z,101258.59
2022-11-01T07:59:09.519Z,101263.84
2022-11-01T08:04:12.843Z,101270.97
2022-11-01T08:09:23.055Z,101264.97
2022-11-01T08:14:26.072Z,101280.91
2022-11-01T08:19:28.991Z,101287.63
2022-11-01T08:24:33.395Z,101288.59
2022-11-01T08:29:36.564Z,101296.06
2022-11-01T08:34:39.632Z,101302.03
2022-11-01T08:39:44.164Z,101303.38
2022-11-01T08:44:47.083Z,101300.91
2022-11-01T08:49:50.080Z,101310.03
2022-11-01T08:54:54.433Z,101320.31
2022-11-01T08:59:57.594Z,101345.56
2022-11-01T09:05:02.788Z,101335.72
2022-11-01T09:10:08.808Z,101341.28
2022-11-01T09:15:12.283Z,101355.34
2022-11-01T09:20:15.588Z,101365.44
2022-11-01T09:25:20.045Z,101373.50
2022-11-01T09:30:23.063Z,101393.22
2022-11-01T09:41:02.864Z,101394.19
2022-11-01T09:46:07.685Z,101408.28
2022-11-01T09:51:15.649Z,101426.38
2022-11-01T09:56:24.845Z,101423.09
2022-11-01T10:01:42.519Z,101412.94
2022-11-01T10:06:52.355Z,101424.47
2022-11-01T10:12:11.386Z,101405.94
2022-11-01T10:17:15.972Z,101427.38
2022-11-01T10:22:22.855Z,101416.88
2022-11-01T10:27:36.172Z,101411.69
2022-11-01T10:32:46.903Z,101410.78
2022-11-01T10:38:11.196Z,101419.81
2022-11-01T10:43:23.327Z,101431.63
2022-11-01T10:48:33.062Z,101445.94
2022-11-01T10:53:39.472Z,101453.84
2022-11-01T10:58:50.569Z,101444.19
2022-11-01T11:03:56.603Z,101438.94
2022-11-01T11:08:59.953Z,101451.47
2022-11-01T11:14:07.790Z,101448.78
2022-11-01T11:19:19.492Z,101472.03
2022-11-01T11:24:24.953Z,101449.91
2022-11-01T11:29:37.619Z,101452.78
2022-11-01T11:34:41.514Z,101448.50
2022-11-01T11:40:02.385Z,101460.91
2022-11-01T11:45:25.359Z,101464.59
2022-11-01T11:50:33.237Z,101464.75
2022-11-01T11:55:43.485Z,101450.72
2022-11-01T12:00:50.997Z,101454.28
2022-11-01T12:05:57.615Z,101440.88
2022-11-01T12:11:00.965Z,101450.78
2022-11-01T12:16:19.278Z,101458.16
2022-11-01T12:21:28.755Z,101441.41
2022-11-01T12:26:36.067Z,101437.88
2022-11-01T12:31:44.438Z,101431.81
2022-11-01T12:36:54.132Z,101433.66
2022-11-01T12:42:00.640Z,101423.94
2022-11-01T12:47:18.101Z,101422.25
2022-11-01T12:52:28.225Z,101414.41
2022-11-01T12:57:33.815Z,101413.56
2022-11-01T13:03:02.328Z,101419.72
2022-11-01T13:08:17.327Z,101409.22
2022-11-01T13:13:28.300Z,101399.53
2022-11-01T13:18:44.938Z,101403.91
2022-11-01T13:23:55.040Z,101396.94
2022-11-01T13:29:08.791Z,101390.81
2022-11-01T13:34:23.904Z,101392.69
2022-11-01T13:39:38.042Z,101395.34
2022-11-01T13:44:45.824Z,101399.03
2022-11-01T13:50:04.065Z,101392.81
2022-11-01T13:55:17.900Z,101412.38
2022-11-01T14:00:39.680Z,101408.72
2022-11-01T14:05:45.963Z,101392.81
2022-11-01T14:10:51.717Z,101405.25
2022-11-01T14:16:24.908Z,101394.63
2022-11-01T14:21:32.267Z,101394.66
2022-11-01T14:26:49.781Z,101401.66
2022-11-01T14:31:54.297Z,101414.13
2022-11-01T14:37:05.315Z,101419.34
2022-11-01T14:42:15.990Z,101411.22
2022-11-01T14:47:28.670Z,101410.25
2022-11-01T14:52:41.092Z,101412.00
2022-11-01T14:57:45.346Z,101404.91
2022-11-01T15:02:48.460Z,101395.06
2022-11-01T15:07:55.915Z,101409.69
2022-11-01T15:13:01.711Z,101417.28
2022-11-01T15:18:09.268Z,101408.25
2022-11-01T15:23:20.264Z,101405.28
2022-11-01T15:28:26.450Z,101397.88
2022-11-01T15:33:31.146Z,101404.63
2022-11-01T15:38:37.686Z,101408.00
2022-11-01T15:43:40.625Z,101414.03
2022-11-01T15:48:46.494Z,101412.94
2022-11-01T15:53:59.276Z,101423.53
2022-11-01T15:59:04.227Z,101417.06
2022-11-01T16:04:11.234Z,101430.28
2022-11-01T16:09:32.707Z,101435.44
2022-11-01T16:14:38.232Z,101405.16
2022-11-01T16:19:45.250Z,101412.19
2022-11-01T16:24:50.732Z,101412.06
2022-11-01T16:29:53.964Z,101406.69
2022-11-01T16:34:57.716Z,101415.41
2022-11-01T16:40:23.607Z,101410.00
2022-11-01T16:45:27.433Z,101409.88
2022-11-01T16:50:31.610Z,101412.34
2022-11-01T16:55:37.350Z,101407.88
2022-11-01T17:00:40.605Z,101412.19
2022-11-01T17:05:43.639Z,101414.78
2022-11-01T17:10:48.736Z,101414.56
2022-11-01T17:15:53.039Z,101419.84
2022-11-01T17:20:58.230Z,101416.25
2022-11-01T17:26:04.008Z,101421.50
2022-11-01T17:31:07.289Z,101409.06
2022-11-01T17:36:14.538Z,101417.78
2022-11-01T17:41:21.124Z,101429.22
2022-11-01T17:46:27.073Z,101426.53
2022-11-01T17:51:30.410Z,101425.44
2022-11-01T17:56:34.952Z,101421.59
2022-11-01T18:01:39.512Z,101413.63
2022-11-01T18:06:43.812Z,101422.59
2022-11-01T18:11:54.055Z,101413.69
2022-11-01T18:17:05.407Z,101417.38
2022-11-01T18:22:19.860Z,101428.78
2022-11-01T18:27:33.941Z,101435.84
2022-11-01T18:32:41.465Z,101436.66
2022-11-01T18:37:51.700Z,101429.38
2022-11-01T18:42:56.421Z,101434.56
2022-11-01T18:48:06.357Z,101427.47
2022-11-01T18:53:14.514Z,101431.03
2022-11-01T18:58:22.059Z,101427.56
2022-11-01T19:03:26.968Z,101432.66
2022-11-01T19:08:29.882Z,101433.56
2022-11-01T19:13:36.221Z,101428.28
2022-11-01T19:18:43.306Z,101435.22
2022-11-01T19:23:50.415Z,101439.53
2022-11-01T19:28:55.230Z,101432.47
2022-11-01T19:34:00.315Z,101419.09
2022-11-01T19:39:18.291Z,101417.19
2022-11-01T19:44:25.021Z,101409.97
2022-11-01T19:49:30.898Z,101393.72
2022-11-01T19:54:37.434Z,101402.63
2022-11-01T19:59:41.916Z,101395.28
2022-11-01T20:04:45.331Z,101396.19
2022-11-01T20:09:49.329Z,101410.69
2022-11-01T20:14:53.816Z,101397.81
2022-11-01T20:19:57.117Z,101410.06
2022-11-01T20:25:00.782Z,101429.75
2022-11-01T20:30:06.174Z,101435.59
2022-11-01T20:35:10.977Z,101429.91
2022-11-01T20:40:14.244Z,101417.28
2022-11-01T20:45:18.599Z,101399.03
2022-11-01T20:50:21.858Z,101421.97
2022-11-01T20:55:24.974Z,101428.91
2022-11-01T21:00:29.641Z,101434.09
2022-11-01T21:05:36.719Z,101408.41
2022-11-01T21:10:41.006Z,101429.41
2022-11-01T21:15:46.842Z,101426.69
2022-11-01T21:20:50.767Z,101429.97
2022-11-01T21:25:57.897Z,101438.59
2022-11-01T21:31:18.962Z,101450.69
2022-11-01T21:36:34.848Z,101460.22
2022-11-01T21:41:42.015Z,101451.94
2022-11-01T21:46:49.756Z,101451.72
2022-11-01T21:51:53.955Z,101457.53
2022-11-01T21:56:57.967Z,101455.56
2022-11-01T22:02:03.802Z,101426.31
2022-11-01T22:07:09.168Z,101413.88
2022-11-01T22:12:12.656Z,101394.41
2022-11-01T22:17:18.492Z,101388.91
2022-11-01T22:22:21.647Z,101382.81
2022-11-01T22:27:26.830Z,101356.13
2022-11-01T22:32:31.659Z,101363.94
2022-11-01T22:37:36.625Z,101358.66
2022-11-01T22:42:39.734Z,101348.22
2022-11-01T22:47:45.961Z,101349.94
2022-11-01T22:52:50.390Z,101348.88
2022-11-01T22:57:58.574Z,101344.53
2022-11-01T23:03:12.056Z,101355.13
2022-11-01T23:08:24.713Z,101343.06
2022-11-01T23:13:47.267Z,101340.31
2022-11-01T23:18:52.462Z,101347.59
2022-11-01T23:23:55.676Z,101354.88
2022-11-01T23:28:59.905Z,101367.44
2022-11-01T23:34:04.629Z,101358.84
2022-11-01T23:39:11.954Z,101351.81
2022-11-01T23:44:24.894Z,101346.59
2022-11-01T23:49:32.804Z,101352.88
2022-11-01T23:54:39.934Z,101353.88
2022-11-01T23:59:42.987Z,101346.81
